createdAt,value
2023-02-26T00:01:36.861Z,97.08
2023-02-26T00:04:05.421Z,96.49
2023-02-26T00:06:37.399Z,96.54
2023-02-26T00:09:05.512Z,96.50
2023-02-26T00:11:33.190Z,96.70
2023-02-26T00:14:02.751Z,97.89
2023-02-26T00:16:35.733Z,96.55
2023-02-26T00:19:05.699Z,95.54
2023-02-26T00:21:34.213Z,95.65
2023-02-26T00:24:02.186Z,96.03
2023-02-26T00:26:31.367Z,96.07
2023-02-26T00:28:59.009Z,96.38
2023-02-26T00:31:26.058Z,95.93
2023-02-26T00:33:54.868Z,96.91
2023-02-26T00:36:33.792Z,98.17
2023-02-26T00:39:34.325Z,99.45
2023-02-26T00:42:01.383Z,100.00
2023-02-26T00:44:28.427Z,100.00
2023-02-26T00:47:20.839Z,100.00
2023-02-26T00:50:26.245Z,100.00
2023-02-26T00:53:19.716Z,100.00
2023-02-26T00:55:46.390Z,100.00
2023-02-26T00:58:13.097Z,99.45
2023-02-26T01:00:39.772Z,99.60
2023-02-26T01:03:06.956Z,99.11
2023-02-26T01:05:33.939Z,99.12
2023-02-26T01:08:18.672Z,98.72
2023-02-26T01:10:46.216Z,98.86
2023-02-26T01:13:13.183Z,99.74
2023-02-26T01:15:46.779Z,99.43
2023-02-26T01:18:24.131Z,98.95
2023-02-26T01:21:02.691Z,97.62
2023-02-26T01:23:35.290Z,97.01
2023-02-26T01:26:14.681Z,97.07
2023-02-26T01:28:41.739Z,97.25
2023-02-26T01:31:20.747Z,96.09
2023-02-26T01:33:55.884Z,96.30
2023-02-26T01:36:31.465Z,96.60
2023-02-26T01:39:06.343Z,96.79
2023-02-26T01:41:55.038Z,97.34
2023-02-26T01:44:42.882Z,98.01
2023-02-26T01:48:20.043Z,96.84
2023-02-26T01:50:46.813Z,95.50
2023-02-26T01:53:24.061Z,94.43
2023-02-26T01:55:56.603Z,89.88
2023-02-26T01:58:25.236Z,89.52
2023-02-26T02:00:52.271Z,86.66
2023-02-26T02:03:20.863Z,84.81
2023-02-26T02:06:00.689Z,84.41
2023-02-26T02:08:27.472Z,82.71
2023-02-26T02:10:54.486Z,81.52
2023-02-26T02:13:54.792Z,80.90
2023-02-26T02:16:50.210Z,80.77
2023-02-26T02:20:15.795Z,81.02
2023-02-26T02:23:12.098Z,81.68
2023-02-26T02:26:28.570Z,80.14
2023-02-26T02:29:36.666Z,79.96
2023-02-26T02:32:18.681Z,80.93
2023-02-26T02:35:15.043Z,80.46
2023-02-26T02:37:55.951Z,80.55
2023-02-26T02:40:27.336Z,80.10
2023-02-26T02:43:04.445Z,79.83
2023-02-26T02:46:00.477Z,81.50
2023-02-26T02:48:32.338Z,81.33
2023-02-26T02:51:07.516Z,80.37
2023-02-26T02:53:45.421Z,77.39
2023-02-26T02:56:29.549Z,79.80
2023-02-26T02:59:11.070Z,79.11
2023-02-26T03:01:39.364Z,79.56
2023-02-26T03:04:10.187Z,79.01
2023-02-26T03:06:37.635Z,79.72
2023-02-26T03:09:06.289Z,78.96
2023-02-26T03:11:34.500Z,80.19
2023-02-26T03:14:02.242Z,76.61
2023-02-26T03:16:53.520Z,77.75
2023-02-26T03:19:44.616Z,76.69
2023-02-26T03:22:53.227Z,76.93
2023-02-26T03:25:42.758Z,75.82
2023-02-26T03:28:35.102Z,76.18
2023-02-26T03:31:12.180Z,76.13
2023-02-26T03:33:59.996Z,76.07
2023-02-26T03:36:43.416Z,77.85
2023-02-26T03:39:18.749Z,77.82
2023-02-26T03:42:11.279Z,75.88
2023-02-26T03:44:44.285Z,76.31
2023-02-26T03:47:14.300Z,76.80
2023-02-26T03:49:47.064Z,78.29
2023-02-26T03:52:14.810Z,77.82
2023-02-26T03:54:46.833Z,76.89
2023-02-26T03:57:13.900Z,78.30
2023-02-26T03:59:40.531Z,77.33
2023-02-26T04:02:18.525Z,77.42
2023-02-26T04:05:05.976Z,78.76
2023-02-26T04:07:32.980Z,79.28
2023-02-26T04:09:59.810Z,78.76
2023-02-26T04:12:28.903Z,79.02
2023-02-26T04:14:56.897Z,78.64
2023-02-26T04:17:23.577Z,78.61
2023-02-26T04:19:50.314Z,78.18
2023-02-26T04:22:17.078Z,78.18
2023-02-26T04:24:43.734Z,78.89
2023-02-26T04:27:10.383Z,78.75
2023-02-26T04:29:37.680Z,77.36
2023-02-26T04:32:04.446Z,78.85
2023-02-26T04:34:31.438Z,77.29
2023-02-26T04:36:58.212Z,78.09
2023-02-26T04:39:24.855Z,78.56
2023-02-26T04:41:51.469Z,78.37
2023-02-26T04:44:18.179Z,78.68
2023-02-26T04:46:44.874Z,78.55
2023-02-26T04:49:11.517Z,79.38
2023-02-26T04:51:38.248Z,79.20
2023-02-26T04:54:05.009Z,78.49
2023-02-26T04:56:32.602Z,77.88
2023-02-26T04:58:59.293Z,77.79
2023-02-26T05:01:25.971Z,77.95
2023-02-26T05:03:52.738Z,79.13
2023-02-26T05:06:19.427Z,77.95
2023-02-26T05:08:46.083Z,78.54
2023-02-26T05:11:13.279Z,79.47
2023-02-26T05:13:40.291Z,77.54
2023-02-26T05:16:07.611Z,77.94
2023-02-26T05:18:34.316Z,77.42
2023-02-26T05:21:01.014Z,78.38
2023-02-26T05:23:27.634Z,78.92
2023-02-26T05:25:58.384Z,79.33
2023-02-26T05:28:26.307Z,78.89
2023-02-26T05:30:53.568Z,78.85
2023-02-26T05:33:20.303Z,78.89
2023-02-26T05:35:48.192Z,79.22
2023-02-26T05:38:15.521Z,79.79
2023-02-26T05:40:42.165Z,80.17
2023-02-26T05:43:09.097Z,80.85
2023-02-26T05:45:35.816Z,80.04
2023-02-26T05:48:02.593Z,79.71
2023-02-26T05:50:30.578Z,79.25
2023-02-26T05:52:57.565Z,78.92
2023-02-26T05:55:24.560Z,78.28
2023-02-26T05:57:51.259Z,78.04
2023-02-26T06:00:18.502Z,77.43
2023-02-26T06:02:45.163Z,76.88
2023-02-26T06:05:11.882Z,76.64
2023-02-26T06:07:38.667Z,75.94
2023-02-26T06:10:06.276Z,75.63
2023-02-26T06:12:32.967Z,75.62
2023-02-26T06:14:59.648Z,77.16
2023-02-26T06:17:27.104Z,78.21
2023-02-26T06:19:53.941Z,77.43
2023-02-26T06:22:20.561Z,77.48
2023-02-26T06:24:47.220Z,77.04
2023-02-26T06:27:13.971Z,77.01
2023-02-26T06:29:40.661Z,77.92
2023-02-26T06:32:07.552Z,78.55
2023-02-26T06:34:34.517Z,78.05
2023-02-26T06:37:01.165Z,78.18
2023-02-26T06:39:27.803Z,77.93
2023-02-26T06:41:54.487Z,78.35
2023-02-26T06:44:21.092Z,78.06
2023-02-26T06:46:47.809Z,78.03
2023-02-26T06:49:14.573Z,78.81
2023-02-26T06:51:41.252Z,79.39
2023-02-26T06:54:07.879Z,79.91
2023-02-26T06:56:34.818Z,79.17
2023-02-26T06:59:01.703Z,79.21
2023-02-26T07:01:28.454Z,79.82
2023-02-26T07:03:55.154Z,81.57
2023-02-26T07:06:27.818Z,82.98
2023-02-26T07:08:55.524Z,81.48
2023-02-26T07:11:22.248Z,81.01
2023-02-26T07:13:48.941Z,80.87
2023-02-26T07:16:15.546Z,81.68
2023-02-26T07:18:42.616Z,80.37
2023-02-26T07:21:09.479Z,80.16
2023-02-26T07:23:36.180Z,78.54
2023-02-26T07:26:03.147Z,78.04
2023-02-26T07:28:30.015Z,77.95
2023-02-26T07:30:57.175Z,78.75
2023-02-26T07:33:25.073Z,79.05
2023-02-26T07:35:51.719Z,78.66
2023-02-26T07:38:19.646Z,79.52
2023-02-26T07:40:47.161Z,79.88
2023-02-26T07:43:13.795Z,79.08
2023-02-26T07:45:40.560Z,80.11
2023-02-26T07:48:07.407Z,79.26
2023-02-26T07:50:34.085Z,80.23
2023-02-26T07:53:00.769Z,80.41
2023-02-26T07:55:27.823Z,80.69
2023-02-26T07:57:54.674Z,82.15
2023-02-26T08:00:21.730Z,81.12
2023-02-26T08:02:48.424Z,82.09
2023-02-26T08:05:15.117Z,82.17
2023-02-26T08:07:41.828Z,81.06
2023-02-26T08:10:09.814Z,81.15
2023-02-26T08:12:36.867Z,80.19
2023-02-26T08:15:04.516Z,80.95
2023-02-26T08:17:52.566Z,81.22
2023-02-26T08:20:19.791Z,81.33
2023-02-26T08:22:46.436Z,81.89
2023-02-26T08:25:13.235Z,80.85
2023-02-26T08:27:40.059Z,80.92
2023-02-26T08:30:07.854Z,80.32
2023-02-26T08:32:34.573Z,82.98
2023-02-26T08:35:01.263Z,83.54
2023-02-26T08:37:27.900Z,85.08
2023-02-26T08:39:54.636Z,84.89
2023-02-26T08:42:21.286Z,85.49
2023-02-26T08:44:48.106Z,86.93
2023-02-26T08:47:19.146Z,86.74
2023-02-26T08:49:51.296Z,87.34
2023-02-26T08:52:17.999Z,88.38
2023-02-26T08:54:44.637Z,89.37
2023-02-26T08:57:11.260Z,90.11
2023-02-26T08:59:37.896Z,90.41
2023-02-26T09:02:04.733Z,91.51
2023-02-26T09:04:31.413Z,91.53
2023-02-26T09:06:58.079Z,90.64
2023-02-26T09:09:24.648Z,92.08
2023-02-26T09:11:51.307Z,91.87
2023-02-26T09:14:17.925Z,92.85
2023-02-26T09:16:44.633Z,93.15
2023-02-26T09:19:11.397Z,93.67
2023-02-26T09:21:38.100Z,93.07
2023-02-26T09:24:04.960Z,94.07
2023-02-26T09:26:31.561Z,93.37
2023-02-26T09:28:58.244Z,93.13
2023-02-26T09:31:24.927Z,94.20
2023-02-26T09:33:51.566Z,92.68
2023-02-26T09:36:18.152Z,93.56
2023-02-26T09:38:46.004Z,94.17
2023-02-26T09:41:22.427Z,92.98
2023-02-26T09:44:16.823Z,93.24
2023-02-26T09:47:00.616Z,94.52
2023-02-26T09:49:34.973Z,93.75
2023-02-26T09:52:34.421Z,92.65
2023-02-26T09:55:09.670Z,91.35
2023-02-26T09:57:42.587Z,91.74
2023-02-26T10:00:24.757Z,92.97
2023-02-26T10:02:59.691Z,91.89
2023-02-26T10:05:59.715Z,92.30
2023-02-26T10:08:34.155Z,91.85
2023-02-26T10:11:11.942Z,90.65
2023-02-26T10:13:57.588Z,91.84
2023-02-26T10:16:29.283Z,91.53
2023-02-26T10:19:03.788Z,93.96
2023-02-26T10:21:39.573Z,94.89
2023-02-26T10:24:39.078Z,93.35
2023-02-26T10:27:12.033Z,93.67
2023-02-26T10:29:53.945Z,90.84
2023-02-26T10:32:46.641Z,91.00
2023-02-26T10:35:19.077Z,90.46
2023-02-26T10:37:59.307Z,91.70
2023-02-26T10:40:50.434Z,87.91
2023-02-26T10:43:27.317Z,88.20
2023-02-26T10:46:12.984Z,87.19
2023-02-26T10:49:08.493Z,88.13
2023-02-26T10:51:39.850Z,84.86
2023-02-26T10:54:42.000Z,84.12
2023-02-26T10:57:19.078Z,84.46
2023-02-26T10:59:45.701Z,81.92
2023-02-26T11:02:33.825Z,83.63
2023-02-26T11:05:07.559Z,81.19
2023-02-26T11:07:37.817Z,84.38
2023-02-26T11:10:05.263Z,81.17
2023-02-26T11:12:32.569Z,80.59
2023-02-26T11:15:01.098Z,80.62
2023-02-26T11:17:32.448Z,82.36
2023-02-26T11:20:02.490Z,82.72
2023-02-26T11:22:33.372Z,81.91
2023-02-26T11:25:00.358Z,82.02
2023-02-26T11:27:31.897Z,82.41
2023-02-26T11:30:04.102Z,79.76
2023-02-26T11:32:36.552Z,80.06
2023-02-26T11:35:03.781Z,81.35
2023-02-26T11:37:35.099Z,82.72
2023-02-26T11:40:18.408Z,79.35
2023-02-26T11:42:58.210Z,79.41
2023-02-26T11:45:25.476Z,79.04
2023-02-26T11:48:05.147Z,78.91
2023-02-26T11:50:38.666Z,77.75
2023-02-26T11:53:08.343Z,80.57
2023-02-26T11:55:40.100Z,73.29
2023-02-26T11:58:19.178Z,79.94
2023-02-26T12:00:46.599Z,81.92
2023-02-26T12:03:23.039Z,80.67
2023-02-26T12:05:50.866Z,80.25
2023-02-26T12:08:24.961Z,78.28
2023-02-26T12:11:29.091Z,79.38
2023-02-26T12:14:33.084Z,80.16
2023-02-26T12:17:27.875Z,79.32
2023-02-26T12:20:21.056Z,78.41
2023-02-26T12:22:56.570Z,75.21
2023-02-26T12:25:52.416Z,72.00
2023-02-26T12:28:43.802Z,74.38
2023-02-26T12:31:40.360Z,73.32
2023-02-26T12:34:42.629Z,74.83
2023-02-26T12:37:57.312Z,73.04
2023-02-26T12:41:00.758Z,73.52
2023-02-26T12:43:40.478Z,73.89
2023-02-26T12:46:35.878Z,74.72
2023-02-26T12:49:53.219Z,74.05
2023-02-26T12:52:50.187Z,76.36
2023-02-26T12:55:55.368Z,76.27
2023-02-26T12:59:01.600Z,76.61
2023-02-26T13:02:01.350Z,76.72
2023-02-26T13:05:23.939Z,76.06
2023-02-26T13:08:35.983Z,78.74
2023-02-26T13:11:29.358Z,80.23
2023-02-26T13:14:33.563Z,82.24
2023-02-26T13:17:07.462Z,84.20
2023-02-26T13:19:43.263Z,86.02
2023-02-26T13:22:25.037Z,86.22
2023-02-26T13:25:02.122Z,85.71
2023-02-26T13:27:34.025Z,86.22
2023-02-26T13:30:26.494Z,85.45
2023-02-26T13:32:59.893Z,85.45
2023-02-26T13:35:33.978Z,83.38
2023-02-26T13:38:05.413Z,83.57
2023-02-26T13:40:56.938Z,80.08
2023-02-26T13:43:38.328Z,78.99
2023-02-26T13:46:38.604Z,80.95
2023-02-26T13:49:28.805Z,80.47
2023-02-26T13:51:56.848Z,76.52
2023-02-26T13:54:45.820Z,74.79
2023-02-26T13:57:36.837Z,79.56
2023-02-26T14:00:31.926Z,78.50
2023-02-26T14:03:29.496Z,80.88
2023-02-26T14:06:15.905Z,80.89
2023-02-26T14:08:46.140Z,80.94
2023-02-26T14:12:02.047Z,80.24
2023-02-26T14:14:31.136Z,80.94
2023-02-26T14:17:37.067Z,80.29
2023-02-26T14:20:15.733Z,82.24
2023-02-26T14:22:46.777Z,81.86
2023-02-26T14:25:37.570Z,81.39
2023-02-26T14:28:27.437Z,82.28
2023-02-26T14:31:07.783Z,80.93
2023-02-26T14:34:02.773Z,81.63
2023-02-26T14:37:02.561Z,80.46
2023-02-26T14:39:44.057Z,79.59
2023-02-26T14:42:26.395Z,79.05
2023-02-26T14:45:06.333Z,81.08
2023-02-26T14:47:33.004Z,81.49
2023-02-26T14:50:00.753Z,82.12
2023-02-26T14:52:59.432Z,81.92
2023-02-26T14:55:52.484Z,81.59
2023-02-26T14:58:43.968Z,81.38
2023-02-26T15:01:48.892Z,80.88
2023-02-26T15:04:31.300Z,81.56
2023-02-26T15:06:57.803Z,82.77
2023-02-26T15:09:58.459Z,82.08
2023-02-26T15:13:03.973Z,83.07
2023-02-26T15:16:07.877Z,81.74
2023-02-26T15:18:43.515Z,81.69
2023-02-26T15:21:18.769Z,81.13
2023-02-26T15:23:52.060Z,80.86
2023-02-26T15:26:26.618Z,80.99
2023-02-26T15:28:54.749Z,80.00
2023-02-26T15:31:30.701Z,79.19
2023-02-26T15:33:58.573Z,79.85
2023-02-26T15:36:27.343Z,78.79
2023-02-26T15:38:59.902Z,79.76
2023-02-26T15:41:28.233Z,80.21
2023-02-26T15:44:07.346Z,81.56
2023-02-26T15:46:37.573Z,79.69
2023-02-26T15:49:12.214Z,79.95
2023-02-26T15:51:40.260Z,80.89
2023-02-26T15:54:07.065Z,80.64
2023-02-26T15:56:39.376Z,81.62
2023-02-26T15:59:17.571Z,81.83
2023-02-26T16:01:44.262Z,81.06
2023-02-26T16:04:19.584Z,81.97
2023-02-26T16:06:55.533Z,81.18
2023-02-26T16:09:34.583Z,82.36
2023-02-26T16:12:13.137Z,81.96
2023-02-26T16:14:43.897Z,82.48
2023-02-26T16:17:15.051Z,82.32
2023-02-26T16:19:45.846Z,82.26
2023-02-26T16:22:25.774Z,82.00
2023-02-26T16:24:59.049Z,82.58
2023-02-26T16:27:30.987Z,82.95
2023-02-26T16:30:00.622Z,82.63
2023-02-26T16:32:31.978Z,83.56
2023-02-26T16:35:07.985Z,83.24
2023-02-26T16:37:38.816Z,82.23
2023-02-26T16:40:20.126Z,82.70
2023-02-26T16:43:21.989Z,83.23
2023-02-26T16:45:51.161Z,83.82
2023-02-26T16:48:36.202Z,84.70
2023-02-26T16:51:16.476Z,84.25
2023-02-26T16:54:07.644Z,85.48
2023-02-26T16:56:39.636Z,85.98
2023-02-26T16:59:17.322Z,86.53
2023-02-26T17:02:01.727Z,85.91
2023-02-26T17:04:32.227Z,85.73
2023-02-26T17:06:59.133Z,84.50
2023-02-26T17:09:49.238Z,84.49
2023-02-26T17:12:20.422Z,85.25
2023-02-26T17:14:57.929Z,84.42
2023-02-26T17:17:25.492Z,85.55
2023-02-26T17:19:54.052Z,85.25
2023-02-26T17:22:28.892Z,84.87
2023-02-26T17:24:55.649Z,85.27
2023-02-26T17:27:30.411Z,86.66
2023-02-26T17:29:57.939Z,86.67
2023-02-26T17:32:27.097Z,84.39
2023-02-26T17:34:54.688Z,84.85
2023-02-26T17:37:22.537Z,84.16
2023-02-26T17:39:49.419Z,86.44
2023-02-26T17:42:19.485Z,84.86
2023-02-26T17:44:46.091Z,84.99
2023-02-26T17:47:16.888Z,85.99
2023-02-26T17:49:44.338Z,86.64
2023-02-26T17:52:10.942Z,86.42
2023-02-26T17:54:37.669Z,86.53
2023-02-26T17:57:05.323Z,86.80
2023-02-26T17:59:32.076Z,86.01
2023-02-26T18:01:58.864Z,85.92
2023-02-26T18:04:25.547Z,85.83
2023-02-26T18:06:52.344Z,86.23
2023-02-26T18:09:19.506Z,87.01
2023-02-26T18:11:46.114Z,86.94
2023-02-26T18:14:12.703Z,86.24
2023-02-26T18:16:42.757Z,86.23
2023-02-26T18:19:13.861Z,86.57
2023-02-26T18:21:40.515Z,87.15
2023-02-26T18:24:07.692Z,88.23
2023-02-26T18:26:34.537Z,89.34
2023-02-26T18:29:01.174Z,88.92
2023-02-26T18:31:34.549Z,89.40
2023-02-26T18:34:02.497Z,88.74
2023-02-26T18:36:37.505Z,89.11
2023-02-26T18:39:12.697Z,89.11
2023-02-26T18:41:39.575Z,88.74
2023-02-26T18:44:06.193Z,89.58
2023-02-26T18:46:34.931Z,89.96
2023-02-26T18:49:01.559Z,87.69
2023-02-26T18:51:29.841Z,86.11
2023-02-26T18:53:56.495Z,87.10
2023-02-26T18:56:23.016Z,87.54
2023-02-26T18:58:49.596Z,84.13
2023-02-26T19:01:16.371Z,80.95
2023-02-26T19:03:42.990Z,80.78
2023-02-26T19:06:09.677Z,80.59
2023-02-26T19:08:36.376Z,83.31
2023-02-26T19:11:03.026Z,82.96
2023-02-26T19:13:29.668Z,84.43
2023-02-26T19:15:56.554Z,85.16
2023-02-26T19:18:23.197Z,82.85
2023-02-26T19:20:49.841Z,83.82
2023-02-26T19:23:16.476Z,81.92
2023-02-26T19:25:43.166Z,81.95
2023-02-26T19:28:09.704Z,83.12
2023-02-26T19:30:36.608Z,81.69
2023-02-26T19:33:03.237Z,80.75
2023-02-26T19:35:30.725Z,82.70
2023-02-26T19:37:57.353Z,77.97
2023-02-26T19:40:24.711Z,78.29
2023-02-26T19:42:51.345Z,79.78
2023-02-26T19:45:18.050Z,80.03
2023-02-26T19:47:45.337Z,78.73
2023-02-26T19:50:14.123Z,79.12
2023-02-26T19:52:41.135Z,79.33
2023-02-26T19:55:08.839Z,79.09
2023-02-26T19:57:35.619Z,79.55
2023-02-26T20:00:03.298Z,79.35
2023-02-26T20:02:30.023Z,81.38
2023-02-26T20:04:56.636Z,81.64
2023-02-26T20:07:23.566Z,79.89
2023-02-26T20:09:50.332Z,79.02
2023-02-26T20:12:16.923Z,81.54
2023-02-26T20:14:43.814Z,78.91
2023-02-26T20:17:10.435Z,79.81
2023-02-26T20:19:37.125Z,80.66
2023-02-26T20:22:03.755Z,80.21
2023-02-26T20:24:32.731Z,80.69
2023-02-26T20:27:00.211Z,78.54
2023-02-26T20:29:26.836Z,80.23
2023-02-26T20:31:53.616Z,77.55
2023-02-26T20:34:20.670Z,81.44
2023-02-26T20:36:49.832Z,79.84
2023-02-26T20:39:19.029Z,79.54
2023-02-26T20:41:45.657Z,81.00
2023-02-26T20:44:12.298Z,82.01
2023-02-26T20:46:39.045Z,82.44
2023-02-26T20:49:11.369Z,81.31
2023-02-26T20:51:42.171Z,80.28
2023-02-26T20:54:12.751Z,81.07
2023-02-26T20:56:39.315Z,81.58
2023-02-26T20:59:05.921Z,82.27
2023-02-26T21:01:35.694Z,80.68
2023-02-26T21:04:07.803Z,81.26
2023-02-26T21:06:34.847Z,80.39
2023-02-26T21:09:02.597Z,80.75
2023-02-26T21:11:36.623Z,78.67
2023-02-26T21:14:05.302Z,78.35
2023-02-26T21:16:31.987Z,79.62
2023-02-26T21:19:00.329Z,79.28
2023-02-26T21:21:27.695Z,79.92
2023-02-26T21:23:54.361Z,80.45
2023-02-26T21:26:21.942Z,80.68
2023-02-26T21:28:48.730Z,80.27
2023-02-26T21:31:16.854Z,80.46
2023-02-26T21:33:44.234Z,80.20
2023-02-26T21:36:12.952Z,79.06
2023-02-26T21:38:39.790Z,79.75
2023-02-26T21:41:06.852Z,80.42
2023-02-26T21:43:33.485Z,80.72
2023-02-26T21:46:00.168Z,80.70
2023-02-26T21:48:26.824Z,79.07
2023-02-26T21:50:56.192Z,81.05
2023-02-26T21:53:23.113Z,79.64
2023-02-26T21:55:49.806Z,81.08
2023-02-26T21:58:16.543Z,82.66
2023-02-26T22:00:43.446Z,81.38
2023-02-26T22:03:11.340Z,80.08
2023-02-26T22:05:38.016Z,77.90
2023-02-26T22:08:04.831Z,77.75
2023-02-26T22:10:31.584Z,79.57
2023-02-26T22:12:58.219Z,80.00
2023-02-26T22:15:24.901Z,81.56
2023-02-26T22:17:51.522Z,81.92
2023-02-26T22:20:18.344Z,82.24
2023-02-26T22:22:44.963Z,83.12
2023-02-26T22:25:12.869Z,82.38
2023-02-26T22:27:39.799Z,82.13
2023-02-26T22:30:08.010Z,82.26
2023-02-26T22:32:35.016Z,81.56
2023-02-26T22:35:01.793Z,80.78
2023-02-26T22:37:28.611Z,81.95
2023-02-26T22:39:55.504Z,80.73
2023-02-26T22:42:22.584Z,81.73
2023-02-26T22:44:49.262Z,80.09
2023-02-26T22:47:15.942Z,80.59
2023-02-26T22:49:42.579Z,81.55
2023-02-26T22:52:10.575Z,80.07
2023-02-26T22:54:38.971Z,79.29
2023-02-26T22:57:06.257Z,81.20
2023-02-26T22:59:32.908Z,80.35
2023-02-26T23:01:59.630Z,79.04
2023-02-26T23:04:26.421Z,79.92
2023-02-26T23:06:53.076Z,79.84
2023-02-26T23:09:20.041Z,80.90
2023-02-26T23:11:47.002Z,80.07
2023-02-26T23:14:13.643Z,80.74
2023-02-26T23:16:40.476Z,81.15
2023-02-26T23:19:07.357Z,81.66
2023-02-26T23:21:34.133Z,81.68
2023-02-26T23:24:00.807Z,80.19
2023-02-26T23:26:28.207Z,78.80
2023-02-26T23:28:55.051Z,79.36
2023-02-26T23:31:21.866Z,79.64
2023-02-26T23:33:48.709Z,79.49
2023-02-26T23:36:15.704Z,82.57
2023-02-26T23:38:42.388Z,82.54
2023-02-26T23:41:09.196Z,82.52
2023-02-26T23:43:35.894Z,81.16
2023-02-26T23:46:02.660Z,81.58
2023-02-26T23:48:29.365Z,81.70
2023-02-26T23:50:55.996Z,80.85
2023-02-26T23:53:22.786Z,79.07
2023-02-26T23:55:52.449Z,80.05
2023-02-26T23:58:19.117Z,78.64
